sensor_id;sensor_type;location;lat;lon;timestamp;pressure;altitude;pressure_sealevel;temperature;humidity
38616;BME280;24370;51.986;4.666;2022-09-27T00:00:29;99798.38;;;19.66;49.19
38616;BME280;24370;51.986;4.666;2022-09-27T00:02:54;99793.50;;;20.27;48.59
38616;BME280;24370;51.986;4.666;2022-09-27T00:05:20;99800.50;;;19.74;47.60
38616;BME280;24370;51.986;4.666;2022-09-27T00:07:45;99805.84;;;20.41;48.77
38616;BME280;24370;51.986;4.666;2022-09-27T00:10:12;99804.97;;;20.28;48.03
38616;BME280;24370;51.986;4.666;2022-09-27T00:12:37;99810.13;;;20.57;47.12
38616;BME280;24370;51.986;4.666;2022-09-27T00:15:05;99808.97;;;20.21;47.66
38616;BME280;24370;51.986;4.666;2022-09-27T00:17:31;99811.28;;;20.12;48.01
38616;BME280;24370;51.986;4.666;2022-09-27T00:19:58;99822.25;;;18.94;50.08
38616;BME280;24370;51.986;4.666;2022-09-27T00:22:24;99815.16;;;19.94;48.92
38616;BME280;24370;51.986;4.666;2022-09-27T00:24:50;99815.94;;;20.36;47.73
38616;BME280;24370;51.986;4.666;2022-09-27T00:27:16;99814.81;;;20.13;47.89
38616;BME280;24370;51.986;4.666;2022-09-27T00:29:43;99811.78;;;20.45;47.01
38616;BME280;24370;51.986;4.666;2022-09-27T00:32:09;99801.16;;;20.32;47.19
38616;BME280;24370;51.986;4.666;2022-09-27T00:34:34;99805.00;;;20.54;46.03
38616;BME280;24370;51.986;4.666;2022-09-27T00:36:59;99809.47;;;20.40;47.10
38616;BME280;24370;51.986;4.666;2022-09-27T00:39:25;99811.97;;;20.29;47.11
38616;BME280;24370;51.986;4.666;2022-09-27T00:41:50;99817.44;;;20.40;46.66
38616;BME280;24370;51.986;4.666;2022-09-27T00:47:13;99840.91;;;18.76;51.17
38616;BME280;24370;51.986;4.666;2022-09-27T00:49:45;99840.81;;;19.08;50.02
38616;BME280;24370;51.986;4.666;2022-09-27T00:52:17;99836.78;;;18.87;50.39
38616;BME280;24370;51.986;4.666;2022-09-27T00:54:47;99828.41;;;19.23;48.14
38616;BME280;24370;51.986;4.666;2022-09-27T00:57:14;99833.75;;;19.65;47.50
38616;BME280;24370;51.986;4.666;2022-09-27T00:59:44;99829.03;;;20.25;46.55
38616;BME280;24370;51.986;4.666;2022-09-27T01:02:12;99834.34;;;19.56;48.63
38616;BME280;24370;51.986;4.666;2022-09-27T01:04:38;99831.25;;;20.18;47.55
38616;BME280;24370;51.986;4.666;2022-09-27T01:07:05;99826.38;;;19.70;48.41
38616;BME280;24370;51.986;4.666;2022-09-27T01:09:31;99829.09;;;19.83;48.22
38616;BME280;24370;51.986;4.666;2022-09-27T01:14:47;99837.34;;;19.64;47.67
38616;BME280;24370;51.986;4.666;2022-09-27T01:30:46;99839.63;;;19.85;48.61
38616;BME280;24370;51.986;4.666;2022-09-27T01:33:39;99832.25;;;20.03;48.48
38616;BME280;24370;51.986;4.666;2022-09-27T01:38:55;99831.81;;;19.96;48.19
38616;BME280;24370;51.986;4.666;2022-09-27T01:47:02;99836.97;;;19.70;48.56
38616;BME280;24370;51.986;4.666;2022-09-27T01:49:55;99841.16;;;20.02;47.70
38616;BME280;24370;51.986;4.666;2022-09-27T01:52:30;99844.78;;;19.44;48.42
38616;BME280;24370;51.986;4.666;2022-09-27T01:55:00;99838.78;;;19.84;47.83
38616;BME280;24370;51.986;4.666;2022-09-27T01:57:32;99840.78;;;19.66;47.59
38616;BME280;24370;51.986;4.666;2022-09-27T02:00:03;99832.69;;;19.82;47.45
38616;BME280;24370;51.986;4.666;2022-09-27T02:02:34;99825.44;;;19.98;46.79
38616;BME280;24370;51.986;4.666;2022-09-27T02:05:02;99823.28;;;20.18;47.22
38616;BME280;24370;51.986;4.666;2022-09-27T02:07:36;99832.84;;;18.94;49.07
38616;BME280;24370;51.986;4.666;2022-09-27T02:10:17;99828.38;;;19.52;47.95
38616;BME280;24370;51.986;4.666;2022-09-27T02:12:50;99805.34;;;19.67;48.62
38616;BME280;24370;51.986;4.666;2022-09-27T02:15:16;99807.25;;;19.65;48.61
38616;BME280;24370;51.986;4.666;2022-09-27T02:17:53;99808.25;;;19.91;48.21
38616;BME280;24370;51.986;4.666;2022-09-27T02:20:36;99807.69;;;20.13;47.42
38616;BME280;24370;51.986;4.666;2022-09-27T02:23:23;99810.00;;;20.05;47.57
38616;BME280;24370;51.986;4.666;2022-09-27T02:25:55;99814.50;;;20.17;47.31
38616;BME280;24370;51.986;4.666;2022-09-27T02:28:34;99818.75;;;20.20;47.15
38616;BME280;24370;51.986;4.666;2022-09-27T02:31:03;99829.03;;;20.25;47.59
38616;BME280;24370;51.986;4.666;2022-09-27T02:33:32;99855.47;;;18.69;50.16
38616;BME280;24370;51.986;4.666;2022-09-27T02:36:00;99870.91;;;15.55;56.29
38616;BME280;24370;51.986;4.666;2022-09-27T02:38:25;99869.00;;;15.77;54.76
38616;BME280;24370;51.986;4.666;2022-09-27T02:40:51;99855.81;;;16.33;55.25
38616;BME280;24370;51.986;4.666;2022-09-27T02:43:18;99854.41;;;16.78;53.70
38616;BME280;24370;51.986;4.666;2022-09-27T02:54:06;99837.47;;;18.45;49.03
38616;BME280;24370;51.986;4.666;2022-09-27T02:56:49;99839.97;;;18.63;49.10
38616;BME280;24370;51.986;4.666;2022-09-27T03:05:08;99842.31;;;19.41;48.89
38616;BME280;24370;51.986;4.666;2022-09-27T03:07:35;99845.16;;;19.24;48.62
38616;BME280;24370;51.986;4.666;2022-09-27T03:10:03;99850.28;;;18.82;47.77
38616;BME280;24370;51.986;4.666;2022-09-27T03:12:28;99841.84;;;18.61;48.09
38616;BME280;24370;51.986;4.666;2022-09-27T03:14:55;99850.31;;;17.73;50.42
38616;BME280;24370;51.986;4.666;2022-09-27T03:17:21;99845.38;;;17.67;51.39
38616;BME280;24370;51.986;4.666;2022-09-27T03:19:47;99838.00;;;18.81;49.11
38616;BME280;24370;51.986;4.666;2022-09-27T03:22:12;99826.22;;;19.30;47.66
38616;BME280;24370;51.986;4.666;2022-09-27T03:24:38;99819.03;;;19.32;47.97
38616;BME280;24370;51.986;4.666;2022-09-27T03:27:04;99819.00;;;19.46;47.60
38616;BME280;24370;51.986;4.666;2022-09-27T03:29:29;99808.97;;;19.66;46.66
38616;BME280;24370;51.986;4.666;2022-09-27T03:31:54;99822.34;;;18.47;48.16
38616;BME280;24370;51.986;4.666;2022-09-27T03:34:20;99826.09;;;17.65;49.99
38616;BME280;24370;51.986;4.666;2022-09-27T03:36:46;99829.78;;;18.71;48.51
38616;BME280;24370;51.986;4.666;2022-09-27T03:39:11;99823.41;;;19.33;48.23
38616;BME280;24370;51.986;4.666;2022-09-27T03:41:37;99834.44;;;18.52;48.48
38616;BME280;24370;51.986;4.666;2022-09-27T03:44:02;99839.66;;;17.75;50.05
38616;BME280;24370;51.986;4.666;2022-09-27T03:46:28;99838.63;;;17.77;52.40
38616;BME280;24370;51.986;4.666;2022-09-27T03:48:53;99841.00;;;18.30;50.35
38616;BME280;24370;51.986;4.666;2022-09-27T03:51:18;99858.38;;;18.95;49.61
38616;BME280;24370;51.986;4.666;2022-09-27T03:53:44;99874.59;;;17.48;51.63
38616;BME280;24370;51.986;4.666;2022-09-27T03:56:09;99867.84;;;17.42;54.78
38616;BME280;24370;51.986;4.666;2022-09-27T03:58:35;99891.16;;;16.29;59.32
38616;BME280;24370;51.986;4.666;2022-09-27T04:01:00;99863.56;;;16.54;61.59
38616;BME280;24370;51.986;4.666;2022-09-27T04:03:26;99853.88;;;16.00;58.58
38616;BME280;24370;51.986;4.666;2022-09-27T04:05:52;99841.09;;;15.73;58.61
38616;BME280;24370;51.986;4.666;2022-09-27T04:08:18;99839.06;;;17.04;55.87
38616;BME280;24370;51.986;4.666;2022-09-27T04:10:43;99851.84;;;15.88;60.37
38616;BME280;24370;51.986;4.666;2022-09-27T04:13:09;99834.78;;;17.35;54.96
38616;BME280;24370;51.986;4.666;2022-09-27T04:15:34;99844.63;;;18.43;51.30
38616;BME280;24370;51.986;4.666;2022-09-27T04:18:00;99850.66;;;18.76;52.92
38616;BME280;24370;51.986;4.666;2022-09-27T04:20:25;99870.72;;;17.04;54.14
38616;BME280;24370;51.986;4.666;2022-09-27T04:22:51;99869.03;;;17.53;54.36
38616;BME280;24370;51.986;4.666;2022-09-27T04:25:16;99847.13;;;16.66;55.46
38616;BME280;24370;51.986;4.666;2022-09-27T04:27:45;99829.09;;;17.91;52.53
38616;BME280;24370;51.986;4.666;2022-09-27T04:30:11;99841.06;;;16.99;53.73
38616;BME280;24370;51.986;4.666;2022-09-27T04:32:41;99837.28;;;17.86;52.47
38616;BME280;24370;51.986;4.666;2022-09-27T04:35:08;99834.69;;;18.63;51.31
38616;BME280;24370;51.986;4.666;2022-09-27T04:37:52;99830.97;;;19.25;49.85
38616;BME280;24370;51.986;4.666;2022-09-27T04:40:17;99827.38;;;18.67;50.59
38616;BME280;24370;51.986;4.666;2022-09-27T04:42:44;99838.38;;;18.30;49.96
38616;BME280;24370;51.986;4.666;2022-09-27T04:45:09;99831.38;;;18.74;49.82
38616;BME280;24370;51.986;4.666;2022-09-27T04:47:44;99840.06;;;17.51;51.79
38616;BME280;24370;51.986;4.666;2022-09-27T04:50:10;99845.03;;;17.73;52.27
38616;BME280;24370;51.986;4.666;2022-09-27T04:52:35;99849.84;;;17.99;50.81
38616;BME280;24370;51.986;4.666;2022-09-27T04:55:01;99848.22;;;18.42;51.50
38616;BME280;24370;51.986;4.666;2022-09-27T04:57:27;99844.19;;;18.21;51.62
38616;BME280;24370;51.986;4.666;2022-09-27T04:59:52;99831.47;;;17.95;52.20
38616;BME280;24370;51.986;4.666;2022-09-27T05:02:17;99834.63;;;17.38;54.55
38616;BME280;24370;51.986;4.666;2022-09-27T05:04:43;99842.13;;;17.62;54.60
38616;BME280;24370;51.986;4.666;2022-09-27T05:07:08;99844.34;;;16.52;56.17
38616;BME280;24370;51.986;4.666;2022-09-27T05:09:33;99840.69;;;18.04;53.99
38616;BME280;24370;51.986;4.666;2022-09-27T05:11:59;99845.28;;;17.69;51.94
38616;BME280;24370;51.986;4.666;2022-09-27T05:14:25;99846.13;;;17.04;58.27
38616;BME280;24370;51.986;4.666;2022-09-27T05:16:52;99864.28;;;15.65;63.52
38616;BME280;24370;51.986;4.666;2022-09-27T05:19:17;99870.09;;;14.94;69.68
38616;BME280;24370;51.986;4.666;2022-09-27T05:21:42;99854.13;;;15.96;63.02
38616;BME280;24370;51.986;4.666;2022-09-27T05:24:08;99846.50;;;16.78;59.96
38616;BME280;24370;51.986;4.666;2022-09-27T05:26:33;99847.88;;;17.21;57.75
38616;BME280;24370;51.986;4.666;2022-09-27T05:28:59;99849.59;;;17.04;58.20
38616;BME280;24370;51.986;4.666;2022-09-27T05:31:24;99868.03;;;17.39;55.24
38616;BME280;24370;51.986;4.666;2022-09-27T05:33:50;99859.06;;;16.38;57.83
38616;BME280;24370;51.986;4.666;2022-09-27T05:36:16;99859.50;;;17.34;57.05
38616;BME280;24370;51.986;4.666;2022-09-27T05:38:42;99845.94;;;18.20;54.23
38616;BME280;24370;51.986;4.666;2022-09-27T05:41:08;99847.44;;;18.40;53.98
38616;BME280;24370;51.986;4.666;2022-09-27T05:43:33;99851.78;;;17.95;52.69
38616;BME280;24370;51.986;4.666;2022-09-27T05:45:59;99853.19;;;17.53;53.74
38616;BME280;24370;51.986;4.666;2022-09-27T05:48:25;99852.53;;;17.81;52.83
38616;BME280;24370;51.986;4.666;2022-09-27T05:50:50;99865.63;;;18.46;52.19
38616;BME280;24370;51.986;4.666;2022-09-27T05:53:15;99857.81;;;18.29;50.84
38616;BME280;24370;51.986;4.666;2022-09-27T05:55:41;99855.97;;;17.99;51.66
38616;BME280;24370;51.986;4.666;2022-09-27T05:58:09;99859.09;;;18.82;50.98
38616;BME280;24370;51.986;4.666;2022-09-27T06:00:35;99855.84;;;19.08;50.04
38616;BME280;24370;51.986;4.666;2022-09-27T06:03:02;99851.97;;;18.69;49.80
38616;BME280;24370;51.986;4.666;2022-09-27T06:05:30;99848.88;;;18.46;50.63
38616;BME280;24370;51.986;4.666;2022-09-27T06:08:03;99846.34;;;18.44;51.00
38616;BME280;24370;51.986;4.666;2022-09-27T06:10:30;99845.91;;;19.11;49.48
38616;BME280;24370;51.986;4.666;2022-09-27T06:13:03;99846.28;;;18.30;50.95
38616;BME280;24370;51.986;4.666;2022-09-27T06:15:30;99849.03;;;18.59;50.47
38616;BME280;24370;51.986;4.666;2022-09-27T06:17:56;99844.63;;;18.43;51.04
38616;BME280;24370;51.986;4.666;2022-09-27T06:20:22;99851.88;;;18.70;51.41
38616;BME280;24370;51.986;4.666;2022-09-27T06:22:47;99858.31;;;18.36;51.37
38616;BME280;24370;51.986;4.666;2022-09-27T06:25:13;99855.81;;;18.33;50.86
38616;BME280;24370;51.986;4.666;2022-09-27T06:27:38;99855.66;;;18.66;51.61
38616;BME280;24370;51.986;4.666;2022-09-27T06:30:04;99857.09;;;17.95;52.27
38616;BME280;24370;51.986;4.666;2022-09-27T06:32:30;99853.41;;;17.97;53.50
38616;BME280;24370;51.986;4.666;2022-09-27T06:34:57;99856.06;;;18.13;53.44
38616;BME280;24370;51.986;4.666;2022-09-27T06:37:26;99843.16;;;17.91;51.97
38616;BME280;24370;51.986;4.666;2022-09-27T06:39:52;99855.25;;;18.88;50.19
38616;BME280;24370;51.986;4.666;2022-09-27T06:42:18;99857.94;;;19.17;49.90
38616;BME280;24370;51.986;4.666;2022-09-27T06:44:44;99842.59;;;19.51;48.64
38616;BME280;24370;51.986;4.666;2022-09-27T06:47:15;99842.13;;;19.44;48.88
38616;BME280;24370;51.986;4.666;2022-09-27T06:49:40;99849.50;;;19.10;48.79
38616;BME280;24370;51.986;4.666;2022-09-27T06:52:05;99851.63;;;18.44;50.73
38616;BME280;24370;51.986;4.666;2022-09-27T06:54:31;99872.84;;;17.96;52.33
38616;BME280;24370;51.986;4.666;2022-09-27T06:56:56;99890.06;;;17.05;57.29
38616;BME280;24370;51.986;4.666;2022-09-27T06:59:22;99881.31;;;15.96;56.35
38616;BME280;24370;51.986;4.666;2022-09-27T07:02:05;99886.09;;;16.43;58.13
38616;BME280;24370;51.986;4.666;2022-09-27T07:04:31;99885.84;;;17.18;57.46
38616;BME280;24370;51.986;4.666;2022-09-27T07:06:57;99896.50;;;17.17;57.32
38616;BME280;24370;51.986;4.666;2022-09-27T07:09:22;99907.56;;;16.90;58.86
38616;BME280;24370;51.986;4.666;2022-09-27T07:11:48;99904.69;;;17.77;55.10
38616;BME280;24370;51.986;4.666;2022-09-27T07:14:13;99919.09;;;17.56;57.31
38616;BME280;24370;51.986;4.666;2022-09-27T07:16:38;99916.19;;;18.26;54.29
38616;BME280;24370;51.986;4.666;2022-09-27T07:19:04;99924.19;;;16.73;58.83
38616;BME280;24370;51.986;4.666;2022-09-27T07:21:32;99926.00;;;17.25;55.46
38616;BME280;24370;51.986;4.666;2022-09-27T07:23:57;99927.09;;;17.21;54.05
38616;BME280;24370;51.986;4.666;2022-09-27T07:26:23;99930.34;;;17.08;55.60
38616;BME280;24370;51.986;4.666;2022-09-27T07:28:48;99913.25;;;18.30;52.00
38616;BME280;24370;51.986;4.666;2022-09-27T07:31:13;99924.69;;;18.47;50.69
38616;BME280;24370;51.986;4.666;2022-09-27T07:33:39;99912.97;;;18.81;49.66
38616;BME280;24370;51.986;4.666;2022-09-27T07:36:09;99917.56;;;18.94;49.92
38616;BME280;24370;51.986;4.666;2022-09-27T07:38:35;99920.81;;;18.99;48.94
38616;BME280;24370;51.986;4.666;2022-09-27T07:41:08;99915.66;;;18.03;50.45
38616;BME280;24370;51.986;4.666;2022-09-27T07:43:34;99926.53;;;18.45;49.53
38616;BME280;24370;51.986;4.666;2022-09-27T07:46:00;99924.06;;;18.58;49.14
38616;BME280;24370;51.986;4.666;2022-09-27T07:48:25;99926.50;;;18.77;49.40
38616;BME280;24370;51.986;4.666;2022-09-27T07:50:52;99917.25;;;18.38;50.56
38616;BME280;24370;51.986;4.666;2022-09-27T07:53:17;99921.53;;;18.71;50.48
38616;BME280;24370;51.986;4.666;2022-09-27T07:55:43;99924.63;;;19.24;49.05
38616;BME280;24370;51.986;4.666;2022-09-27T07:58:10;99913.19;;;19.52;47.87
38616;BME280;24370;51.986;4.666;2022-09-27T08:00:36;99910.81;;;19.76;47.21
38616;BME280;24370;51.986;4.666;2022-09-27T08:03:13;99916.03;;;19.49;48.17
38616;BME280;24370;51.986;4.666;2022-09-27T08:05:43;99908.53;;;19.27;47.22
38616;BME280;24370;51.986;4.666;2022-09-27T08:08:08;99905.91;;;19.70;48.42
38616;BME280;24370;51.986;4.666;2022-09-27T08:10:34;99921.66;;;20.15;47.44
38616;BME280;24370;51.986;4.666;2022-09-27T08:13:03;99927.03;;;20.28;47.64
38616;BME280;24370;51.986;4.666;2022-09-27T08:15:33;99943.31;;;19.80;48.51
38616;BME280;24370;51.986;4.666;2022-09-27T08:18:03;99942.63;;;19.47;48.97
38616;BME280;24370;51.986;4.666;2022-09-27T08:20:29;99936.00;;;19.98;48.21
38616;BME280;24370;51.986;4.666;2022-09-27T08:22:54;99943.72;;;20.43;48.11
38616;BME280;24370;51.986;4.666;2022-09-27T08:25:20;99941.03;;;20.30;47.92
38616;BME280;24370;51.986;4.666;2022-09-27T08:27:56;99941.69;;;20.61;47.28
38616;BME280;24370;51.986;4.666;2022-09-27T08:30:22;99953.03;;;20.77;46.37
38616;BME280;24370;51.986;4.666;2022-09-27T08:32:47;99951.03;;;20.94;46.42
38616;BME280;24370;51.986;4.666;2022-09-27T08:35:13;99964.94;;;20.84;46.03
38616;BME280;24370;51.986;4.666;2022-09-27T08:37:40;99961.78;;;20.65;46.76
38616;BME280;24370;51.986;4.666;2022-09-27T08:40:06;99972.66;;;20.33;47.00
38616;BME280;24370;51.986;4.666;2022-09-27T08:43:02;99970.44;;;20.12;47.21
38616;BME280;24370;51.986;4.666;2022-09-27T08:45:33;99972.44;;;19.65;48.84
38616;BME280;24370;51.986;4.666;2022-09-27T08:48:03;99973.34;;;19.21;50.19
38616;BME280;24370;51.986;4.666;2022-09-27T08:50:42;99973.34;;;19.21;50.31
38616;BME280;24370;51.986;4.666;2022-09-27T08:53:26;99978.91;;;19.76;48.93
38616;BME280;24370;51.986;4.666;2022-09-27T08:55:56;99973.34;;;19.95;49.12
38616;BME280;24370;51.986;4.666;2022-09-27T08:58:27;99967.22;;;19.21;48.84
38616;BME280;24370;51.986;4.666;2022-09-27T09:00:55;99957.94;;;19.28;50.97
38616;BME280;24370;51.986;4.666;2022-09-27T09:03:26;99965.63;;;18.88;52.23
38616;BME280;24370;51.986;4.666;2022-09-27T09:06:00;99971.19;;;19.28;52.69
38616;BME280;24370;51.986;4.666;2022-09-27T09:11:20;99967.63;;;18.04;55.42
38616;BME280;24370;51.986;4.666;2022-09-27T09:14:25;99976.25;;;17.23;58.04
38616;BME280;24370;51.986;4.666;2022-09-27T09:20:06;99960.94;;;17.48;60.07
38616;BME280;24370;51.986;4.666;2022-09-27T09:34:12;99941.66;;;19.63;51.79
38616;BME280;24370;51.986;4.666;2022-09-27T09:36:45;99942.81;;;19.73;51.53
38616;BME280;24370;51.986;4.666;2022-09-27T09:39:18;99950.78;;;19.88;51.44
38616;BME280;24370;51.986;4.666;2022-09-27T09:44:45;99946.03;;;19.21;53.57
38616;BME280;24370;51.986;4.666;2022-09-27T09:47:25;99966.16;;;17.65;56.04
38616;BME280;24370;51.986;4.666;2022-09-27T09:50:00;99962.47;;;19.26;53.59
38616;BME280;24370;51.986;4.666;2022-09-27T09:52:44;99965.91;;;19.71;51.11
38616;BME280;24370;51.986;4.666;2022-09-27T09:55:18;99965.31;;;20.24;48.78
38616;BME280;24370;51.986;4.666;2022-09-27T09:58:11;99967.88;;;20.53;48.30
38616;BME280;24370;51.986;4.666;2022-09-27T10:00:41;99983.28;;;20.75;48.05
38616;BME280;24370;51.986;4.666;2022-09-27T10:03:07;99987.41;;;19.07;51.55
38616;BME280;24370;51.986;4.666;2022-09-27T10:05:33;99982.13;;;18.29;54.39
38616;BME280;24370;51.986;4.666;2022-09-27T10:08:01;99990.28;;;17.24;58.15
38616;BME280;24370;51.986;4.666;2022-09-27T10:10:27;99983.06;;;18.28;56.15
38616;BME280;24370;51.986;4.666;2022-09-27T10:12:53;99991.41;;;17.02;61.72
38616;BME280;24370;51.986;4.666;2022-09-27T10:15:22;99993.56;;;16.94;63.08
38616;BME280;24370;51.986;4.666;2022-09-27T10:17:50;99990.06;;;16.57;65.76
38616;BME280;24370;51.986;4.666;2022-09-27T10:20:38;99988.50;;;17.93;59.54
38616;BME280;24370;51.986;4.666;2022-09-27T10:23:24;99986.44;;;17.31;62.04
38616;BME280;24370;51.986;4.666;2022-09-27T10:25:56;99994.91;;;16.47;64.54
38616;BME280;24370;51.986;4.666;2022-09-27T10:31:16;99987.91;;;16.65;62.92
38616;BME280;24370;51.986;4.666;2022-09-27T10:33:57;99994.19;;;17.52;59.07
38616;BME280;24370;51.986;4.666;2022-09-27T10:36:26;99993.66;;;16.37;58.80
38616;BME280;24370;51.986;4.666;2022-09-27T10:38:55;99984.88;;;16.73;57.94
38616;BME280;24370;51.986;4.666;2022-09-27T10:41:24;99991.50;;;15.88;63.91
38616;BME280;24370;51.986;4.666;2022-09-27T10:43:50;99983.03;;;17.96;56.25
38616;BME280;24370;51.986;4.666;2022-09-27T10:46:26;99981.50;;;17.92;53.43
38616;BME280;24370;51.986;4.666;2022-09-27T10:49:10;99974.78;;;18.80;52.16
38616;BME280;24370;51.986;4.666;2022-09-27T10:51:42;99984.28;;;16.85;56.49
38616;BME280;24370;51.986;4.666;2022-09-27T10:54:25;99978.56;;;17.29;57.37
38616;BME280;24370;51.986;4.666;2022-09-27T10:57:01;99977.06;;;17.41;55.62
38616;BME280;24370;51.986;4.666;2022-09-27T10:59:32;99977.47;;;17.34;57.60
38616;BME280;24370;51.986;4.666;2022-09-27T11:01:58;99965.75;;;18.38;52.11
38616;BME280;24370;51.986;4.666;2022-09-27T11:04:35;99967.59;;;18.98;51.33
38616;BME280;24370;51.986;4.666;2022-09-27T11:07:17;99963.38;;;18.96;50.37
38616;BME280;24370;51.986;4.666;2022-09-27T11:09:49;99956.03;;;19.30;50.21
38616;BME280;24370;51.986;4.666;2022-09-27T11:12:16;99970.41;;;17.34;56.58
38616;BME280;24370;51.986;4.666;2022-09-27T11:14:51;99973.00;;;18.35;53.29
38616;BME280;24370;51.986;4.666;2022-09-27T11:17:25;99956.78;;;19.18;49.88
38616;BME280;24370;51.986;4.666;2022-09-27T11:22:36;99961.56;;;18.34;51.60
38616;BME280;24370;51.986;4.666;2022-09-27T11:30:49;99947.09;;;19.02;50.99
38616;BME280;24370;51.986;4.666;2022-09-27T11:33:35;99934.19;;;18.65;53.04
38616;BME280;24370;51.986;4.666;2022-09-27T11:36:33;99929.19;;;19.94;50.09
38616;BME280;24370;51.986;4.666;2022-09-27T11:39:11;99937.03;;;18.93;51.90
38616;BME280;24370;51.986;4.666;2022-09-27T11:47:05;99932.66;;;20.63;47.64
38616;BME280;24370;51.986;4.666;2022-09-27T11:50:01;99944.31;;;19.20;50.67
38616;BME280;24370;51.986;4.666;2022-09-27T11:53:01;99937.88;;;19.67;49.79
38616;BME280;24370;51.986;4.666;2022-09-27T12:01:09;99938.19;;;19.62;49.43
38616;BME280;24370;51.986;4.666;2022-09-27T12:06:44;99930.47;;;19.14;51.42
38616;BME280;24370;51.986;4.666;2022-09-27T12:09:16;99926.91;;;19.44;49.87
38616;BME280;24370;51.986;4.666;2022-09-27T12:12:11;99933.72;;;18.59;50.53
38616;BME280;24370;51.986;4.666;2022-09-27T12:14:47;99934.50;;;19.65;49.09
38616;BME280;24370;51.986;4.666;2022-09-27T12:17:18;99920.72;;;20.43;48.32
38616;BME280;24370;51.986;4.666;2022-09-27T12:19:49;99918.19;;;20.00;48.22
38616;BME280;24370;51.986;4.666;2022-09-27T12:22:21;99920.97;;;20.66;47.64
38616;BME280;24370;51.986;4.666;2022-09-27T12:24:51;99921.53;;;20.16;47.29
38616;BME280;24370;51.986;4.666;2022-09-27T12:29:58;99913.03;;;20.39;47.48
38616;BME280;24370;51.986;4.666;2022-09-27T12:32:29;99909.69;;;19.95;48.94
38616;BME280;24370;51.986;4.666;2022-09-27T12:37:41;99894.38;;;21.83;45.22
38616;BME280;24370;51.986;4.666;2022-09-27T12:40:27;99897.69;;;21.74;46.16
38616;BME280;24370;51.986;4.666;2022-09-27T12:43:26;99899.34;;;21.88;45.67
38616;BME280;24370;51.986;4.666;2022-09-27T12:52:05;99889.75;;;20.57;46.62
38616;BME280;24370;51.986;4.666;2022-09-27T12:57:32;99883.09;;;19.82;49.23
38616;BME280;24370;51.986;4.666;2022-09-27T13:00:21;99877.50;;;21.59;45.53
38616;BME280;24370;51.986;4.666;2022-09-27T13:05:54;99877.00;;;20.49;47.99
38616;BME280;24370;51.986;4.666;2022-09-27T13:08:26;99875.13;;;20.64;47.73
38616;BME280;24370;51.986;4.666;2022-09-27T13:11:10;99873.91;;;20.55;47.73
38616;BME280;24370;51.986;4.666;2022-09-27T13:13:41;99873.91;;;19.59;49.13
38616;BME280;24370;51.986;4.666;2022-09-27T13:16:07;99872.84;;;21.24;47.03
38616;BME280;24370;51.986;4.666;2022-09-27T13:32:37;99868.97;;;19.81;43.96
38616;BME280;24370;51.986;4.666;2022-09-27T13:35:28;99857.22;;;20.80;44.21
38616;BME280;24370;51.986;4.666;2022-09-27T13:37:55;99859.09;;;19.98;43.04
38616;BME280;24370;51.986;4.666;2022-09-27T13:40:34;99867.31;;;19.37;43.62
38616;BME280;24370;51.986;4.666;2022-09-27T13:45:53;99866.19;;;18.52;41.41
38616;BME280;24370;51.986;4.666;2022-09-27T13:48:57;99859.53;;;17.98;41.50
38616;BME280;24370;51.986;4.666;2022-09-27T13:51:33;99859.34;;;18.17;42.36
38616;BME280;24370;51.986;4.666;2022-09-27T13:54:03;99863.28;;;18.26;40.79
38616;BME280;24370;51.986;4.666;2022-09-27T13:59:04;99857.78;;;18.75;41.66
38616;BME280;24370;51.986;4.666;2022-09-27T14:01:38;99849.50;;;19.10;41.16
38616;BME280;24370;51.986;4.666;2022-09-27T14:04:25;99852.81;;;18.99;41.32
38616;BME280;24370;51.986;4.666;2022-09-27T14:06:55;99841.00;;;19.48;41.12
38616;BME280;24370;51.986;4.666;2022-09-27T14:09:26;99836.66;;;20.16;41.82
38616;BME280;24370;51.986;4.666;2022-09-27T14:12:02;99833.09;;;19.76;41.14
38616;BME280;24370;51.986;4.666;2022-09-27T14:14:30;99823.47;;;20.42;40.17
38616;BME280;24370;51.986;4.666;2022-09-27T14:17:00;99818.16;;;21.58;39.20
38616;BME280;24370;51.986;4.666;2022-09-27T14:19:27;99815.84;;;21.54;38.88
38616;BME280;24370;51.986;4.666;2022-09-27T14:21:53;99829.31;;;21.50;38.51
38616;BME280;24370;51.986;4.666;2022-09-27T14:27:08;99818.41;;;20.65;39.38
38616;BME280;24370;51.986;4.666;2022-09-27T14:29:39;99814.81;;;21.17;38.21
38616;BME280;24370;51.986;4.666;2022-09-27T14:32:08;99818.94;;;20.17;39.30
38616;BME280;24370;51.986;4.666;2022-09-27T14:34:35;99815.91;;;19.96;38.90
38616;BME280;24370;51.986;4.666;2022-09-27T14:37:01;99811.59;;;20.48;38.09
38616;BME280;24370;51.986;4.666;2022-09-27T14:39:52;99811.13;;;20.41;39.68
38616;BME280;24370;51.986;4.666;2022-09-27T14:42:19;99821.34;;;20.47;38.28
38616;BME280;24370;51.986;4.666;2022-09-27T14:44:46;99819.47;;;20.62;38.96
38616;BME280;24370;51.986;4.666;2022-09-27T14:49:50;99839.81;;;18.50;43.11
38616;BME280;24370;51.986;4.666;2022-09-27T14:52:22;99837.56;;;17.97;45.55
38616;BME280;24370;51.986;4.666;2022-09-27T14:57:21;99843.72;;;16.99;49.45
38616;BME280;24370;51.986;4.666;2022-09-27T14:59:47;99839.28;;;17.33;50.75
38616;BME280;24370;51.986;4.666;2022-09-27T15:02:20;99829.59;;;18.74;48.56
38616;BME280;24370;51.986;4.666;2022-09-27T15:04:49;99821.13;;;19.41;47.14
38616;BME280;24370;51.986;4.666;2022-09-27T15:07:16;99832.09;;;19.06;47.13
38616;BME280;24370;51.986;4.666;2022-09-27T15:09:43;99823.81;;;18.82;48.56
38616;BME280;24370;51.986;4.666;2022-09-27T15:12:11;99821.97;;;19.27;47.39
38616;BME280;24370;51.986;4.666;2022-09-27T15:14:39;99836.38;;;19.94;46.53
38616;BME280;24370;51.986;4.666;2022-09-27T15:17:17;99852.84;;;17.43;52.49
38616;BME280;24370;51.986;4.666;2022-09-27T15:20:17;99831.06;;;18.64;49.30
38616;BME280;24370;51.986;4.666;2022-09-27T15:22:44;99844.19;;;18.21;50.20
38616;BME280;24370;51.986;4.666;2022-09-27T15:25:18;99822.31;;;20.06;47.32
38616;BME280;24370;51.986;4.666;2022-09-27T15:27:52;99825.22;;;19.74;47.39